sensor_id;sensor_type;location;lat;lon;timestamp;P1;durP1;ratioP1;P2;durP2;ratioP2
25962;SDS011;13760;52.588;13.406;2023-11-22T00:00:51;15.02;;;7.03;;
25962;SDS011;13760;52.588;13.406;2023-11-22T00:03:16;14.02;;;7.25;;
25962;SDS011;13760;52.588;13.406;2023-11-22T00:05:42;12.73;;;6.88;;
25962;SDS011;13760;52.588;13.406;2023-11-22T00:08:07;12.30;;;6.88;;
25962;SDS011;13760;52.588;13.406;2023-11-22T00:10:33;12.30;;;7.03;;
25962;SDS011;13760;52.588;13.406;2023-11-22T00:12:59;17.33;;;7.07;;
25962;SDS011;13760;52.588;13.406;2023-11-22T00:15:25;12.80;;;6.88;;
25962;SDS011;13760;52.588;13.406;2023-11-22T00:17:51;12.52;;;7.05;;
25962;SDS011;13760;52.588;13.406;2023-11-22T00:20:17;15.07;;;7.25;;
25962;SDS011;13760;52.588;13.406;2023-11-22T00:22:43;12.85;;;7.28;;
25962;SDS011;13760;52.588;13.406;2023-11-22T00:25:10;13.55;;;7.20;;
25962;SDS011;13760;52.588;13.406;2023-11-22T00:27:38;13.57;;;7.00;;
25962;SDS011;13760;52.588;13.406;2023-11-22T00:30:04;11.40;;;6.90;;
25962;SDS011;13760;52.588;13.406;2023-11-22T00:32:30;14.43;;;7.47;;
25962;SDS011;13760;52.588;13.406;2023-11-22T00:34:55;14.52;;;7.45;;
25962;SDS011;13760;52.588;13.406;2023-11-22T00:37:21;14.63;;;7.47;;
25962;SDS011;13760;52.588;13.406;2023-11-22T00:39:47;13.85;;;7.45;;
25962;SDS011;13760;52.588;13.406;2023-11-22T00:42:12;16.55;;;7.55;;
25962;SDS011;13760;52.588;13.406;2023-11-22T00:44:38;15.27;;;7.28;;
25962;SDS011;13760;52.588;13.406;2023-11-22T00:47:04;12.95;;;7.30;;
25962;SDS011;13760;52.588;13.406;2023-11-22T00:49:30;13.52;;;7.35;;
25962;SDS011;13760;52.588;13.406;2023-11-22T00:51:55;12.63;;;6.88;;
25962;SDS011;13760;52.588;13.406;2023-11-22T00:54:21;13.30;;;7.05;;
25962;SDS011;13760;52.588;13.406;2023-11-22T00:56:47;14.88;;;7.47;;
25962;SDS011;13760;52.588;13.406;2023-11-22T00:59:13;16.05;;;7.43;;
25962;SDS011;13760;52.588;13.406;2023-11-22T01:01:39;15.27;;;7.43;;
25962;SDS011;13760;52.588;13.406;2023-11-22T01:04:06;13.32;;;7.57;;
25962;SDS011;13760;52.588;13.406;2023-11-22T01:06:32;16.38;;;8.05;;
25962;SDS011;13760;52.588;13.406;2023-11-22T01:08:58;15.00;;;8.05;;
25962;SDS011;13760;52.588;13.406;2023-11-22T01:11:24;14.45;;;7.70;;
25962;SDS011;13760;52.588;13.406;2023-11-22T01:13:49;12.55;;;6.95;;
25962;SDS011;13760;52.588;13.406;2023-11-22T01:16:15;13.63;;;7.65;;
25962;SDS011;13760;52.588;13.406;2023-11-22T01:18:40;15.45;;;7.68;;
25962;SDS011;13760;52.588;13.406;2023-11-22T01:21:06;19.52;;;8.05;;
25962;SDS011;13760;52.588;13.406;2023-11-22T01:23:33;17.20;;;7.60;;
25962;SDS011;13760;52.588;13.406;2023-11-22T01:25:58;16.92;;;7.43;;
25962;SDS011;13760;52.588;13.406;2023-11-22T01:28:25;15.07;;;7.78;;
25962;SDS011;13760;52.588;13.406;2023-11-22T01:30:52;17.35;;;7.57;;
25962;SDS011;13760;52.588;13.406;2023-11-22T01:33:19;16.50;;;7.40;;
25962;SDS011;13760;52.588;13.406;2023-11-22T01:35:47;17.85;;;7.63;;
25962;SDS011;13760;52.588;13.406;2023-11-22T01:38:16;14.93;;;8.35;;
25962;SDS011;13760;52.588;13.406;2023-11-22T01:40:45;17.35;;;8.15;;
25962;SDS011;13760;52.588;13.406;2023-11-22T01:43:18;14.70;;;7.38;;
25962;SDS011;13760;52.588;13.406;2023-11-22T01:45:44;14.18;;;7.95;;
25962;SDS011;13760;52.588;13.406;2023-11-22T01:48:10;14.40;;;7.88;;
25962;SDS011;13760;52.588;13.406;2023-11-22T01:50:37;14.38;;;7.80;;
25962;SDS011;13760;52.588;13.406;2023-11-22T01:55:34;13.55;;;7.45;;
25962;SDS011;13760;52.588;13.406;2023-11-22T01:58:00;14.63;;;7.78;;
25962;SDS011;13760;52.588;13.406;2023-11-22T02:00:27;14.70;;;7.93;;
25962;SDS011;13760;52.588;13.406;2023-11-22T02:03:00;15.68;;;7.90;;
25962;SDS011;13760;52.588;13.406;2023-11-22T02:05:27;15.18;;;7.65;;
25962;SDS011;13760;52.588;13.406;2023-11-22T02:07:52;17.00;;;8.80;;
25962;SDS011;13760;52.588;13.406;2023-11-22T02:10:18;14.70;;;8.00;;
25962;SDS011;13760;52.588;13.406;2023-11-22T02:12:43;15.73;;;8.38;;
25962;SDS011;13760;52.588;13.406;2023-11-22T02:15:09;16.83;;;9.02;;
25962;SDS011;13760;52.588;13.406;2023-11-22T02:17:35;16.88;;;8.45;;
25962;SDS011;13760;52.588;13.406;2023-11-22T02:20:01;17.38;;;8.48;;
25962;SDS011;13760;52.588;13.406;2023-11-22T02:22:31;13.82;;;8.30;;
25962;SDS011;13760;52.588;13.406;2023-11-22T02:24:56;15.02;;;7.30;;
25962;SDS011;13760;52.588;13.406;2023-11-22T02:27:22;15.25;;;8.02;;
25962;SDS011;13760;52.588;13.406;2023-11-22T02:29:48;13.52;;;7.85;;
25962;SDS011;13760;52.588;13.406;2023-11-22T02:32:15;14.65;;;7.90;;
25962;SDS011;13760;52.588;13.406;2023-11-22T02:34:40;15.63;;;8.20;;
25962;SDS011;13760;52.588;13.406;2023-11-22T02:37:06;12.88;;;8.05;;
25962;SDS011;13760;52.588;13.406;2023-11-22T02:39:35;15.55;;;7.30;;
25962;SDS011;13760;52.588;13.406;2023-11-22T02:42:08;17.63;;;8.07;;
25962;SDS011;13760;52.588;13.406;2023-11-22T02:44:34;14.85;;;8.30;;
25962;SDS011;13760;52.588;13.406;2023-11-22T02:46:59;14.77;;;8.05;;
25962;SDS011;13760;52.588;13.406;2023-11-22T02:49:25;14.25;;;8.05;;
25962;SDS011;13760;52.588;13.406;2023-11-22T02:51:50;13.43;;;7.88;;
25962;SDS011;13760;52.588;13.406;2023-11-22T02:54:16;15.52;;;8.18;;
25962;SDS011;13760;52.588;13.406;2023-11-22T02:56:41;17.13;;;7.63;;
25962;SDS011;13760;52.588;13.406;2023-11-22T02:59:07;16.60;;;8.15;;
25962;SDS011;13760;52.588;13.406;2023-11-22T03:01:38;15.88;;;8.43;;
25962;SDS011;13760;52.588;13.406;2023-11-22T03:04:07;17.45;;;8.73;;
25962;SDS011;13760;52.588;13.406;2023-11-22T03:06:33;15.77;;;8.45;;
25962;SDS011;13760;52.588;13.406;2023-11-22T03:09:01;14.60;;;8.02;;
25962;SDS011;13760;52.588;13.406;2023-11-22T03:11:27;16.63;;;8.93;;
25962;SDS011;13760;52.588;13.406;2023-11-22T03:13:52;18.20;;;8.75;;
25962;SDS011;13760;52.588;13.406;2023-11-22T03:16:18;19.48;;;8.32;;
25962;SDS011;13760;52.588;13.406;2023-11-22T03:18:43;14.20;;;8.65;;
25962;SDS011;13760;52.588;13.406;2023-11-22T03:21:09;15.68;;;8.55;;
25962;SDS011;13760;52.588;13.406;2023-11-22T03:23:35;15.63;;;8.80;;
25962;SDS011;13760;52.588;13.406;2023-11-22T03:26:00;17.23;;;9.18;;
25962;SDS011;13760;52.588;13.406;2023-11-22T03:28:26;16.98;;;8.88;;
25962;SDS011;13760;52.588;13.406;2023-11-22T03:30:55;18.23;;;8.70;;
25962;SDS011;13760;52.588;13.406;2023-11-22T03:33:20;18.90;;;8.52;;
25962;SDS011;13760;52.588;13.406;2023-11-22T03:35:46;14.32;;;8.45;;
25962;SDS011;13760;52.588;13.406;2023-11-22T03:38:11;16.98;;;8.52;;
25962;SDS011;13760;52.588;13.406;2023-11-22T03:40:37;14.65;;;8.77;;
25962;SDS011;13760;52.588;13.406;2023-11-22T03:43:02;16.63;;;9.05;;
25962;SDS011;13760;52.588;13.406;2023-11-22T03:45:28;15.20;;;8.48;;
25962;SDS011;13760;52.588;13.406;2023-11-22T03:47:54;16.98;;;9.25;;
25962;SDS011;13760;52.588;13.406;2023-11-22T03:50:19;14.95;;;8.13;;
25962;SDS011;13760;52.588;13.406;2023-11-22T03:52:45;17.80;;;8.77;;
25962;SDS011;13760;52.588;13.406;2023-11-22T03:55:11;16.48;;;9.18;;
25962;SDS011;13760;52.588;13.406;2023-11-22T03:57:37;14.95;;;8.77;;
25962;SDS011;13760;52.588;13.406;2023-11-22T04:00:03;19.75;;;9.05;;
25962;SDS011;13760;52.588;13.406;2023-11-22T04:02:31;16.92;;;8.65;;
25962;SDS011;13760;52.588;13.406;2023-11-22T04:04:56;16.45;;;8.75;;
25962;SDS011;13760;52.588;13.406;2023-11-22T04:07:22;15.20;;;8.85;;
25962;SDS011;13760;52.588;13.406;2023-11-22T04:09:48;16.25;;;8.93;;
25962;SDS011;13760;52.588;13.406;2023-11-22T04:12:14;15.63;;;8.48;;
25962;SDS011;13760;52.588;13.406;2023-11-22T04:14:39;14.07;;;8.10;;
25962;SDS011;13760;52.588;13.406;2023-11-22T04:17:05;17.13;;;8.50;;
25962;SDS011;13760;52.588;13.406;2023-11-22T04:19:31;16.73;;;8.77;;
25962;SDS011;13760;52.588;13.406;2023-11-22T04:21:56;18.85;;;9.32;;
25962;SDS011;13760;52.588;13.406;2023-11-22T04:24:22;16.00;;;8.75;;
25962;SDS011;13760;52.588;13.406;2023-11-22T04:26:47;18.08;;;8.40;;
25962;SDS011;13760;52.588;13.406;2023-11-22T04:29:13;15.18;;;8.27;;
25962;SDS011;13760;52.588;13.406;2023-11-22T04:31:38;17.00;;;8.70;;
25962;SDS011;13760;52.588;13.406;2023-11-22T04:34:04;16.27;;;8.77;;
25962;SDS011;13760;52.588;13.406;2023-11-22T04:36:30;17.40;;;9.40;;
25962;SDS011;13760;52.588;13.406;2023-11-22T04:38:55;16.25;;;9.38;;
25962;SDS011;13760;52.588;13.406;2023-11-22T04:41:21;15.52;;;8.98;;
25962;SDS011;13760;52.588;13.406;2023-11-22T04:43:47;17.20;;;9.27;;
25962;SDS011;13760;52.588;13.406;2023-11-22T04:46:13;16.67;;;8.82;;
25962;SDS011;13760;52.588;13.406;2023-11-22T04:48:38;15.82;;;8.82;;
25962;SDS011;13760;52.588;13.406;2023-11-22T04:51:05;18.80;;;9.23;;
25962;SDS011;13760;52.588;13.406;2023-11-22T04:53:31;14.23;;;8.65;;
25962;SDS011;13760;52.588;13.406;2023-11-22T04:55:57;15.70;;;8.85;;
25962;SDS011;13760;52.588;13.406;2023-11-22T04:58:24;16.10;;;9.27;;
25962;SDS011;13760;52.588;13.406;2023-11-22T05:00:49;15.77;;;8.85;;
25962;SDS011;13760;52.588;13.406;2023-11-22T05:03:15;17.77;;;9.80;;
25962;SDS011;13760;52.588;13.406;2023-11-22T05:05:40;17.00;;;8.93;;
25962;SDS011;13760;52.588;13.406;2023-11-22T05:08:06;19.55;;;9.50;;
25962;SDS011;13760;52.588;13.406;2023-11-22T05:10:31;15.55;;;9.20;;
25962;SDS011;13760;52.588;13.406;2023-11-22T05:12:57;16.67;;;8.63;;
25962;SDS011;13760;52.588;13.406;2023-11-22T05:15:24;17.77;;;9.77;;
25962;SDS011;13760;52.588;13.406;2023-11-22T05:17:51;15.85;;;9.38;;
25962;SDS011;13760;52.588;13.406;2023-11-22T05:20:16;16.33;;;8.93;;
25962;SDS011;13760;52.588;13.406;2023-11-22T05:22:42;15.55;;;9.25;;
25962;SDS011;13760;52.588;13.406;2023-11-22T05:25:08;15.73;;;9.20;;
25962;SDS011;13760;52.588;13.406;2023-11-22T05:27:33;19.70;;;9.88;;
25962;SDS011;13760;52.588;13.406;2023-11-22T05:29:59;18.10;;;9.25;;
25962;SDS011;13760;52.588;13.406;2023-11-22T05:32:25;18.77;;;9.13;;
25962;SDS011;13760;52.588;13.406;2023-11-22T05:34:52;20.50;;;10.10;;
25962;SDS011;13760;52.588;13.406;2023-11-22T05:37:18;17.42;;;9.82;;
25962;SDS011;13760;52.588;13.406;2023-11-22T05:39:45;19.27;;;9.55;;
25962;SDS011;13760;52.588;13.406;2023-11-22T05:42:11;18.05;;;10.13;;
25962;SDS011;13760;52.588;13.406;2023-11-22T05:44:36;17.77;;;9.40;;
25962;SDS011;13760;52.588;13.406;2023-11-22T05:47:02;19.15;;;9.63;;
25962;SDS011;13760;52.588;13.406;2023-11-22T05:49:27;21.67;;;10.05;;
25962;SDS011;13760;52.588;13.406;2023-11-22T05:51:53;16.90;;;9.55;;
25962;SDS011;13760;52.588;13.406;2023-11-22T05:54:19;21.58;;;9.63;;
25962;SDS011;13760;52.588;13.406;2023-11-22T05:56:44;19.55;;;9.80;;
25962;SDS011;13760;52.588;13.406;2023-11-22T05:59:10;20.38;;;9.77;;
25962;SDS011;13760;52.588;13.406;2023-11-22T06:01:35;21.58;;;10.70;;
25962;SDS011;13760;52.588;13.406;2023-11-22T06:04:01;20.17;;;10.20;;
25962;SDS011;13760;52.588;13.406;2023-11-22T06:06:27;18.13;;;10.23;;
25962;SDS011;13760;52.588;13.406;2023-11-22T06:08:53;20.65;;;10.00;;
25962;SDS011;13760;52.588;13.406;2023-11-22T06:11:19;19.02;;;10.50;;
25962;SDS011;13760;52.588;13.406;2023-11-22T06:13:46;17.90;;;10.60;;
25962;SDS011;13760;52.588;13.406;2023-11-22T06:16:12;21.10;;;10.32;;
25962;SDS011;13760;52.588;13.406;2023-11-22T06:18:38;20.90;;;10.68;;
25962;SDS011;13760;52.588;13.406;2023-11-22T06:21:08;23.38;;;10.75;;
25962;SDS011;13760;52.588;13.406;2023-11-22T06:23:34;20.85;;;10.02;;
25962;SDS011;13760;52.588;13.406;2023-11-22T06:26:00;18.52;;;10.25;;
25962;SDS011;13760;52.588;13.406;2023-11-22T06:28:26;18.65;;;10.60;;
25962;SDS011;13760;52.588;13.406;2023-11-22T06:30:51;21.13;;;10.50;;
25962;SDS011;13760;52.588;13.406;2023-11-22T06:33:17;21.52;;;10.95;;
25962;SDS011;13760;52.588;13.406;2023-11-22T06:35:43;23.40;;;11.27;;
25962;SDS011;13760;52.588;13.406;2023-11-22T06:38:09;26.17;;;12.60;;
25962;SDS011;13760;52.588;13.406;2023-11-22T06:40:34;21.92;;;11.68;;
25962;SDS011;13760;52.588;13.406;2023-11-22T06:43:00;23.27;;;12.00;;
25962;SDS011;13760;52.588;13.406;2023-11-22T06:45:26;22.90;;;11.55;;
25962;SDS011;13760;52.588;13.406;2023-11-22T06:47:51;22.27;;;11.88;;
25962;SDS011;13760;52.588;13.406;2023-11-22T06:50:17;20.95;;;11.63;;
25962;SDS011;13760;52.588;13.406;2023-11-22T06:52:43;19.70;;;11.02;;
25962;SDS011;13760;52.588;13.406;2023-11-22T06:55:11;24.30;;;12.27;;
25962;SDS011;13760;52.588;13.406;2023-11-22T06:57:37;20.02;;;10.85;;
25962;SDS011;13760;52.588;13.406;2023-11-22T07:00:06;19.30;;;10.73;;
25962;SDS011;13760;52.588;13.406;2023-11-22T07:02:34;21.02;;;10.93;;
25962;SDS011;13760;52.588;13.406;2023-11-22T07:05:01;20.45;;;11.43;;
25962;SDS011;13760;52.588;13.406;2023-11-22T07:07:28;20.13;;;10.90;;
25962;SDS011;13760;52.588;13.406;2023-11-22T07:09:54;19.73;;;11.27;;
25962;SDS011;13760;52.588;13.406;2023-11-22T07:12:23;21.92;;;10.38;;
25962;SDS011;13760;52.588;13.406;2023-11-22T07:14:49;20.58;;;10.15;;
25962;SDS011;13760;52.588;13.406;2023-11-22T07:17:19;19.45;;;11.07;;
25962;SDS011;13760;52.588;13.406;2023-11-22T07:19:47;20.58;;;11.05;;
25962;SDS011;13760;52.588;13.406;2023-11-22T07:22:14;20.58;;;11.15;;
25962;SDS011;13760;52.588;13.406;2023-11-22T07:24:47;21.05;;;10.70;;
25962;SDS011;13760;52.588;13.406;2023-11-22T07:27:20;19.23;;;10.85;;
25962;SDS011;13760;52.588;13.406;2023-11-22T07:29:47;19.63;;;10.93;;
25962;SDS011;13760;52.588;13.406;2023-11-22T07:32:13;21.88;;;10.98;;
25962;SDS011;13760;52.588;13.406;2023-11-22T07:34:43;23.92;;;11.63;;
25962;SDS011;13760;52.588;13.406;2023-11-22T07:37:35;20.38;;;11.00;;
25962;SDS011;13760;52.588;13.406;2023-11-22T07:40:05;22.98;;;11.50;;
25962;SDS011;13760;52.588;13.406;2023-11-22T07:42:33;22.65;;;12.20;;
25962;SDS011;13760;52.588;13.406;2023-11-22T07:45:03;22.38;;;11.35;;
25962;SDS011;13760;52.588;13.406;2023-11-22T07:47:31;19.98;;;10.98;;
25962;SDS011;13760;52.588;13.406;2023-11-22T07:49:59;20.60;;;11.25;;
25962;SDS011;13760;52.588;13.406;2023-11-22T07:52:46;23.05;;;11.85;;
25962;SDS011;13760;52.588;13.406;2023-11-22T07:55:23;22.40;;;12.55;;
25962;SDS011;13760;52.588;13.406;2023-11-22T07:57:53;23.52;;;12.02;;
25962;SDS011;13760;52.588;13.406;2023-11-22T08:00:20;25.15;;;12.95;;
25962;SDS011;13760;52.588;13.406;2023-11-22T08:02:47;23.83;;;12.77;;
25962;SDS011;13760;52.588;13.406;2023-11-22T08:05:14;27.70;;;12.52;;
25962;SDS011;13760;52.588;13.406;2023-11-22T08:07:41;24.52;;;12.35;;
25962;SDS011;13760;52.588;13.406;2023-11-22T08:10:09;29.20;;;14.00;;
25962;SDS011;13760;52.588;13.406;2023-11-22T08:12:43;26.02;;;13.23;;
25962;SDS011;13760;52.588;13.406;2023-11-22T08:15:10;22.60;;;12.18;;
25962;SDS011;13760;52.588;13.406;2023-11-22T08:17:37;21.85;;;12.02;;
25962;SDS011;13760;52.588;13.406;2023-11-22T08:20:04;22.65;;;12.27;;
25962;SDS011;13760;52.588;13.406;2023-11-22T08:22:31;21.20;;;11.43;;
25962;SDS011;13760;52.588;13.406;2023-11-22T08:25:00;23.35;;;12.00;;
25962;SDS011;13760;52.588;13.406;2023-11-22T08:27:29;22.10;;;11.38;;
25962;SDS011;13760;52.588;13.406;2023-11-22T08:29:54;23.40;;;12.20;;
25962;SDS011;13760;52.588;13.406;2023-11-22T08:32:20;21.38;;;11.93;;
25962;SDS011;13760;52.588;13.406;2023-11-22T08:34:49;23.08;;;12.27;;
25962;SDS011;13760;52.588;13.406;2023-11-22T08:37:15;19.67;;;11.57;;
25962;SDS011;13760;52.588;13.406;2023-11-22T08:39:40;25.77;;;12.73;;
25962;SDS011;13760;52.588;13.406;2023-11-22T08:42:06;23.13;;;12.50;;
25962;SDS011;13760;52.588;13.406;2023-11-22T08:44:35;21.50;;;12.07;;
25962;SDS011;13760;52.588;13.406;2023-11-22T08:47:07;24.52;;;12.25;;
25962;SDS011;13760;52.588;13.406;2023-11-22T08:49:33;22.95;;;12.30;;
25962;SDS011;13760;52.588;13.406;2023-11-22T08:52:03;23.20;;;12.33;;
25962;SDS011;13760;52.588;13.406;2023-11-22T08:54:32;21.13;;;11.40;;
25962;SDS011;13760;52.588;13.406;2023-11-22T08:56:57;20.92;;;11.77;;
25962;SDS011;13760;52.588;13.406;2023-11-22T08:59:23;24.17;;;12.02;;
25962;SDS011;13760;52.588;13.406;2023-11-22T09:01:48;23.40;;;12.02;;
25962;SDS011;13760;52.588;13.406;2023-11-22T09:04:14;23.65;;;11.85;;
25962;SDS011;13760;52.588;13.406;2023-11-22T09:06:40;19.85;;;11.07;;
25962;SDS011;13760;52.588;13.406;2023-11-22T09:09:06;20.25;;;10.98;;
25962;SDS011;13760;52.588;13.406;2023-11-22T09:11:33;21.80;;;11.75;;
25962;SDS011;13760;52.588;13.406;2023-11-22T09:13:59;19.90;;;11.77;;
25962;SDS011;13760;52.588;13.406;2023-11-22T09:16:29;22.63;;;11.63;;
25962;SDS011;13760;52.588;13.406;2023-11-22T09:21:26;21.02;;;10.98;;
25962;SDS011;13760;52.588;13.406;2023-11-22T09:23:51;22.75;;;11.75;;
25962;SDS011;13760;52.588;13.406;2023-11-22T09:26:17;19.75;;;11.20;;
25962;SDS011;13760;52.588;13.406;2023-11-22T09:28:42;18.17;;;10.60;;
25962;SDS011;13760;52.588;13.406;2023-11-22T09:31:08;14.18;;;9.15;;
25962;SDS011;13760;52.588;13.406;2023-11-22T09:33:33;23.35;;;10.73;;
25962;SDS011;13760;52.588;13.406;2023-11-22T09:36:00;19.58;;;10.35;;
25962;SDS011;13760;52.588;13.406;2023-11-22T09:38:29;21.33;;;12.37;;
25962;SDS011;13760;52.588;13.406;2023-11-22T09:40:54;20.42;;;10.65;;
25962;SDS011;13760;52.588;13.406;2023-11-22T09:43:21;18.05;;;10.02;;
25962;SDS011;13760;52.588;13.406;2023-11-22T09:45:49;17.27;;;9.48;;
25962;SDS011;13760;52.588;13.406;2023-11-22T09:48:19;18.27;;;10.98;;
25962;SDS011;13760;52.588;13.406;2023-11-22T09:51:32;21.20;;;12.32;;
25962;SDS011;13760;52.588;13.406;2023-11-22T09:56:25;18.85;;;9.52;;
25962;SDS011;13760;52.588;13.406;2023-11-22T09:58:52;19.48;;;9.00;;
25962;SDS011;13760;52.588;13.406;2023-11-22T10:01:25;18.67;;;9.90;;
25962;SDS011;13760;52.588;13.406;2023-11-22T10:04:02;14.60;;;8.98;;
25962;SDS011;13760;52.588;13.406;2023-11-22T10:06:30;15.75;;;9.18;;
25962;SDS011;13760;52.588;13.406;2023-11-22T10:09:04;19.30;;;9.48;;
25962;SDS011;13760;52.588;13.406;2023-11-22T10:12:01;16.77;;;10.32;;
25962;SDS011;13760;52.588;13.406;2023-11-22T10:14:52;15.70;;;8.60;;
25962;SDS011;13760;52.588;13.406;2023-11-22T10:17:19;15.52;;;9.13;;
25962;SDS011;13760;52.588;13.406;2023-11-22T10:19:45;16.60;;;9.27;;
25962;SDS011;13760;52.588;13.406;2023-11-22T10:22:11;16.90;;;9.82;;
25962;SDS011;13760;52.588;13.406;2023-11-22T10:24:42;22.00;;;10.02;;
25962;SDS011;13760;52.588;13.406;2023-11-22T10:27:09;14.85;;;8.77;;
25962;SDS011;13760;52.588;13.406;2023-11-22T10:29:35;16.02;;;9.15;;
25962;SDS011;13760;52.588;13.406;2023-11-22T10:32:01;18.10;;;9.13;;
25962;SDS011;13760;52.588;13.406;2023-11-22T10:34:32;15.43;;;9.55;;
25962;SDS011;13760;52.588;13.406;2023-11-22T10:36:58;14.55;;;9.02;;
25962;SDS011;13760;52.588;13.406;2023-11-22T10:39:26;16.77;;;9.05;;
25962;SDS011;13760;52.588;13.406;2023-11-22T10:41:52;15.68;;;9.75;;
25962;SDS011;13760;52.588;13.406;2023-11-22T10:44:19;23.35;;;12.38;;
25962;SDS011;13760;52.588;13.406;2023-11-22T10:46:46;19.33;;;11.15;;
25962;SDS011;13760;52.588;13.406;2023-11-22T10:49:12;20.70;;;11.60;;
25962;SDS011;13760;52.588;13.406;2023-11-22T10:51:39;17.70;;;10.02;;
25962;SDS011;13760;52.588;13.406;2023-11-22T10:54:06;15.30;;;8.57;;
25962;SDS011;13760;52.588;13.406;2023-11-22T10:56:39;15.60;;;9.20;;
25962;SDS011;13760;52.588;13.406;2023-11-22T10:59:12;14.25;;;8.95;;
25962;SDS011;13760;52.588;13.406;2023-11-22T11:01:40;15.32;;;8.80;;
25962;SDS011;13760;52.588;13.406;2023-11-22T11:04:11;15.88;;;8.95;;
25962;SDS011;13760;52.588;13.406;2023-11-22T11:06:46;18.17;;;8.98;;
25962;SDS011;13760;52.588;13.406;2023-11-22T11:09:16;15.65;;;8.73;;
25962;SDS011;13760;52.588;13.406;2023-11-22T11:11:46;14.50;;;9.05;;
25962;SDS011;13760;52.588;13.406;2023-11-22T11:14:12;15.65;;;8.18;;
25962;SDS011;13760;52.588;13.406;2023-11-22T11:16:40;16.20;;;9.52;;
25962;SDS011;13760;52.588;13.406;2023-11-22T11:19:12;17.55;;;9.15;;
25962;SDS011;13760;52.588;13.406;2023-11-22T11:21:39;18.45;;;8.52;;
25962;SDS011;13760;52.588;13.406;2023-11-22T11:24:04;15.27;;;9.00;;
25962;SDS011;13760;52.588;13.406;2023-11-22T11:26:34;14.05;;;8.55;;
25962;SDS011;13760;52.588;13.406;2023-11-22T11:29:00;15.82;;;9.25;;
25962;SDS011;13760;52.588;13.406;2023-11-22T11:31:28;14.73;;;9.13;;
25962;SDS011;13760;52.588;13.406;2023-11-22T11:33:56;14.73;;;8.32;;
25962;SDS011;13760;52.588;13.406;2023-11-22T11:36:29;15.02;;;9.02;;
25962;SDS011;13760;52.588;13.406;2023-11-22T11:39:04;19.35;;;9.57;;
25962;SDS011;13760;52.588;13.406;2023-11-22T11:41:34;14.35;;;8.57;;
25962;SDS011;13760;52.588;13.406;2023-11-22T11:44:06;14.82;;;8.73;;
25962;SDS011;13760;52.588;13.406;2023-11-22T11:46:34;20.13;;;9.90;;
25962;SDS011;13760;52.588;13.406;2023-11-22T11:49:01;14.60;;;9.35;;
25962;SDS011;13760;52.588;13.406;2023-11-22T11:51:32;16.63;;;9.45;;
25962;SDS011;13760;52.588;13.406;2023-11-22T11:53:58;15.18;;;9.15;;
25962;SDS011;13760;52.588;13.406;2023-11-22T11:56:24;13.73;;;9.20;;
25962;SDS011;13760;52.588;13.406;2023-11-22T11:58:51;16.55;;;8.52;;
25962;SDS011;13760;52.588;13.406;2023-11-22T12:01:17;14.07;;;8.95;;
25962;SDS011;13760;52.588;13.406;2023-11-22T12:03:45;14.77;;;9.05;;
25962;SDS011;13760;52.588;13.406;2023-11-22T12:06:14;12.85;;;8.43;;
25962;SDS011;13760;52.588;13.406;2023-11-22T12:08:41;15.53;;;9.70;;
25962;SDS011;13760;52.588;13.406;2023-11-22T12:11:06;14.93;;;8.65;;
25962;SDS011;13760;52.588;13.406;2023-11-22T12:13:34;13.95;;;8.70;;
25962;SDS011;13760;52.588;13.406;2023-11-22T12:16:03;13.03;;;8.63;;
25962;SDS011;13760;52.588;13.406;2023-11-22T12:18:38;14.38;;;8.43;;
25962;SDS011;13760;52.588;13.406;2023-11-22T12:21:05;15.30;;;8.90;;
25962;SDS011;13760;52.588;13.406;2023-11-22T12:23:32;14.70;;;8.93;;
25962;SDS011;13760;52.588;13.406;2023-11-22T12:25:58;16.23;;;8.75;;
25962;SDS011;13760;52.588;13.406;2023-11-22T12:28:26;16.52;;;8.70;;
25962;SDS011;13760;52.588;13.406;2023-11-22T12:30:53;15.57;;;9.15;;
25962;SDS011;13760;52.588;13.406;2023-11-22T12:33:19;15.50;;;9.02;;
25962;SDS011;13760;52.588;13.406;2023-11-22T12:35:47;13.80;;;8.40;;
25962;SDS011;13760;52.588;13.406;2023-11-22T12:38:14;13.52;;;9.07;;
25962;SDS011;13760;52.588;13.406;2023-11-22T12:40:43;14.18;;;8.57;;
25962;SDS011;13760;52.588;13.406;2023-11-22T12:43:12;13.73;;;8.60;;
25962;SDS011;13760;52.588;13.406;2023-11-22T12:45:39;13.50;;;8.80;;
25962;SDS011;13760;52.588;13.406;2023-11-22T12:48:24;15.82;;;8.75;;
25962;SDS011;13760;52.588;13.406;2023-11-22T12:50:51;13.20;;;8.13;;
25962;SDS011;13760;52.588;13.406;2023-11-22T12:53:17;13.75;;;8.07;;
25962;SDS011;13760;52.588;13.406;2023-11-22T12:55:47;11.57;;;7.25;;
25962;SDS011;13760;52.588;13.406;2023-11-22T12:58:16;15.57;;;7.72;;
25962;SDS011;13760;52.588;13.406;2023-11-22T13:00:44;12.65;;;8.13;;
25962;SDS011;13760;52.588;13.406;2023-11-22T13:03:11;13.27;;;7.13;;
25962;SDS011;13760;52.588;13.406;2023-11-22T13:05:38;11.43;;;6.75;;
25962;SDS011;13760;52.588;13.406;2023-11-22T13:08:10;11.48;;;6.75;;
25962;SDS011;13760;52.588;13.406;2023-11-22T13:10:38;10.90;;;6.68;;
25962;SDS011;13760;52.588;13.406;2023-11-22T13:13:05;12.27;;;7.47;;
25962;SDS011;13760;52.588;13.406;2023-11-22T13:15:33;12.88;;;7.25;;
25962;SDS011;13760;52.588;13.406;2023-11-22T13:17:59;14.35;;;7.65;;
25962;SDS011;13760;52.588;13.406;2023-11-22T13:20:25;11.57;;;7.43;;
25962;SDS011;13760;52.588;13.406;2023-11-22T13:22:52;11.75;;;7.38;;
25962;SDS011;13760;52.588;13.406;2023-11-22T13:25:18;14.43;;;7.07;;
25962;SDS011;13760;52.588;13.406;2023-11-22T13:27:45;12.10;;;7.30;;
25962;SDS011;13760;52.588;13.406;2023-11-22T13:30:13;12.85;;;7.75;;
25962;SDS011;13760;52.588;13.406;2023-11-22T13:32:39;16.08;;;8.35;;
25962;SDS011;13760;52.588;13.406;2023-11-22T13:35:06;19.13;;;8.38;;
25962;SDS011;13760;52.588;13.406;2023-11-22T13:37:39;11.70;;;7.10;;
25962;SDS011;13760;52.588;13.406;2023-11-22T13:40:07;11.55;;;7.35;;
25962;SDS011;13760;52.588;13.406;2023-11-22T13:42:39;16.55;;;7.78;;
25962;SDS011;13760;52.588;13.406;2023-11-22T13:45:07;9.43;;;6.80;;
25962;SDS011;13760;52.588;13.406;2023-11-22T13:47:33;12.32;;;7.10;;
25962;SDS011;13760;52.588;13.406;2023-11-22T13:49:58;10.55;;;5.95;;
25962;SDS011;13760;52.588;13.406;2023-11-22T13:52:24;16.65;;;7.43;;
25962;SDS011;13760;52.588;13.406;2023-11-22T13:54:50;11.68;;;7.10;;
25962;SDS011;13760;52.588;13.406;2023-11-22T13:57:17;14.32;;;6.97;;
25962;SDS011;13760;52.588;13.406;2023-11-22T13:59:43;10.98;;;6.53;;
25962;SDS011;13760;52.588;13.406;2023-11-22T14:02:08;12.50;;;6.93;;
25962;SDS011;13760;52.588;13.406;2023-11-22T14:04:34;13.48;;;7.20;;
25962;SDS011;13760;52.588;13.406;2023-11-22T14:07:00;13.52;;;7.38;;
25962;SDS011;13760;52.588;13.406;2023-11-22T14:09:26;10.38;;;6.60;;
25962;SDS011;13760;52.588;13.406;2023-11-22T14:11:52;11.57;;;7.10;;
25962;SDS011;13760;52.588;13.406;2023-11-22T14:14:18;11.80;;;6.93;;
25962;SDS011;13760;52.588;13.406;2023-11-22T14:16:44;12.68;;;7.00;;
25962;SDS011;13760;52.588;13.406;2023-11-22T14:19:11;10.52;;;6.50;;
25962;SDS011;13760;52.588;13.406;2023-11-22T14:21:38;10.63;;;6.40;;
25962;SDS011;13760;52.588;13.406;2023-11-22T14:24:03;14.82;;;6.88;;
25962;SDS011;13760;52.588;13.406;2023-11-22T14:26:29;10.80;;;7.05;;